Hauptseite
METAR-TAF:

METAR-TAF

Flughäfen :

Auckland, Neuseeland

Flughafen Auckland

Breite: 37-01S, Länge: 174-48E, Höhe: 7 m

Beobachtung

Neuester Wetterbericht von vor 16 Minuten, um 03:00 UTC
Wind 16 kt aus Nordost, variierte zwischen Nord und Ost/Nordost
Temperatur 26°C
Luftfeuchtigkeit 65%
Luftdruck 1015 hPa
Sichtweite 10 km oder mehr

METAR: NZAA 190300Z AUTO 04016KT 360V070 9999 FEW025/// 26/19 Q1015 NOSIG

Zeit: 16:16 (03:16 UTC)

Prognose

Neuester Wetterbericht von vor 4 Stunden und 12 Minuten, um 23:04 UTC
Gültige Prognose vom 19 um 00 UTC bis 20 um 00 UTC
Wind 15 kt aus Nord/Nordost
Sichtweite 10 km oder mehr
Durchbrochene Bewölkung in der Höhe von 2000 ft
Regenschauer
Zeitweise
vom 19 um 12 UTC bis 19 um 20 UTC
Durchbrochene Bewölkung in der Höhe von 800 ft

TAF: NZAA 182304Z 1900/2000 02015KT 9999 -SHRA BKN020 TEMPO 1912/1920 BKN008

Wetterbeobachtungen und Prognosen von mehr als 4000 Flughäfen (METAR und TAF Bericht).

Die verfügbaren Stationen werden durch gelbe und rote Markierungen auf der Karte dargestellt.

Führen Sie die Maus auf sie, um den Namen der Station zu sehen.

Darauf klicken, um die Beobachtung von Wetterbeobachtungen und Prognosen zu sehen.

Um die Karte zu ändern : klicken Sie auf den grünen Tasten mit einem schwarzen Kreuz Zum Vergrößern, auf den grünen Button mit einem Gedankenstrich zu verkleinern, oder auf die grünen Pfeile für benachbarte Karten.


METAR-TAF: